createdAt,value
2019-02-12T00:00:11.888Z,1016.27
2019-02-12T00:01:11.854Z,1016.28
2019-02-12T00:02:11.815Z,1016.34
2019-02-12T00:03:11.780Z,1016.35
2019-02-12T00:04:11.755Z,1016.33
2019-02-12T00:05:12.597Z,1016.36
2019-02-12T00:06:11.729Z,1016.34
2019-02-12T00:07:11.692Z,1016.37
2019-02-12T00:08:11.655Z,1016.38
2019-02-12T00:09:11.645Z,1016.41
2019-02-12T00:10:11.604Z,1016.43
2019-02-12T00:11:11.571Z,1016.47
2019-02-12T00:12:11.548Z,1016.51
2019-02-12T00:13:11.532Z,1016.51
2019-02-12T00:14:11.495Z,1016.49
2019-02-12T00:15:11.475Z,1016.48
2019-02-12T00:16:11.450Z,1016.46
2019-02-12T00:17:11.415Z,1016.49
2019-02-12T00:18:11.397Z,1016.46
2019-02-12T00:19:11.368Z,1016.52
2019-02-12T00:20:11.373Z,1016.53
2019-02-12T00:21:11.309Z,1016.57
2019-02-12T00:22:11.291Z,1016.54
2019-02-12T00:23:11.261Z,1016.57
2019-02-12T00:24:11.227Z,1016.60
2019-02-12T00:25:11.208Z,1016.60
2019-02-12T00:26:11.183Z,1016.63
2019-02-12T00:27:11.162Z,1016.61
2019-02-12T00:28:11.126Z,1016.60
2019-02-12T00:29:11.117Z,1016.56
2019-02-12T00:30:11.074Z,1016.54
2019-02-12T00:31:11.053Z,1016.55
2019-02-12T00:32:11.032Z,1016.59
2019-02-12T00:33:10.994Z,1016.58
2019-02-12T00:34:10.990Z,1016.57
2019-02-12T00:35:10.949Z,1016.60
2019-02-12T00:36:10.924Z,1016.59
2019-02-12T00:37:10.896Z,1016.58
2019-02-12T00:38:10.883Z,1016.59
2019-02-12T00:39:10.836Z,1016.63
2019-02-12T00:40:10.838Z,1016.67
2019-02-12T00:41:10.790Z,1016.67
2019-02-12T00:42:10.792Z,1016.72
2019-02-12T00:43:10.743Z,1016.68
2019-02-12T00:44:10.724Z,1016.72
2019-02-12T00:45:10.686Z,1016.71
2019-02-12T00:46:10.660Z,1016.66
2019-02-12T00:47:10.639Z,1016.67
2019-02-12T00:48:10.617Z,1016.72
2019-02-12T00:49:10.591Z,1016.70
2019-02-12T00:50:10.551Z,1016.67
2019-02-12T00:51:17.615Z,1016.68
2019-02-12T00:52:10.510Z,1016.64
2019-02-12T00:53:10.474Z,1016.66
2019-02-12T00:54:10.483Z,1016.64
2019-02-12T00:55:10.431Z,1016.65
2019-02-12T00:56:10.421Z,1016.63
2019-02-12T00:57:10.387Z,1016.62
2019-02-12T00:58:10.351Z,1016.60
2019-02-12T00:59:10.320Z,1016.66
2019-02-12T01:00:10.290Z,1016.70
2019-02-12T01:01:10.270Z,1016.68
2019-02-12T01:02:10.291Z,1016.73
2019-02-12T01:03:10.230Z,1016.70
2019-02-12T01:04:10.188Z,1016.71
2019-02-12T01:05:10.165Z,1016.69
2019-02-12T01:06:10.146Z,1016.71
2019-02-12T01:07:10.110Z,1016.72
2019-02-12T01:08:10.092Z,1016.71
2019-02-12T01:09:10.117Z,1016.75
2019-02-12T01:10:10.032Z,1016.71
2019-02-12T01:11:10.023Z,1016.72
2019-02-12T01:12:10.031Z,1016.72
2019-02-12T01:13:09.973Z,1016.72
2019-02-12T01:14:09.932Z,1016.69
2019-02-12T01:15:09.901Z,1016.70
2019-02-12T01:16:09.880Z,1016.68
2019-02-12T01:17:09.857Z,1016.66
2019-02-12T01:18:09.860Z,1016.67
2019-02-12T01:19:09.811Z,1016.63
2019-02-12T01:20:09.768Z,1016.67
2019-02-12T01:21:09.760Z,1016.67
2019-02-12T01:22:09.755Z,1016.63
2019-02-12T01:23:09.692Z,1016.58
2019-02-12T01:24:09.667Z,1016.60
2019-02-12T01:25:09.668Z,1016.66
2019-02-12T01:26:09.615Z,1016.59
2019-02-12T01:27:09.595Z,1016.58
2019-02-12T01:28:09.561Z,1016.61
2019-02-12T01:29:09.530Z,1016.60
2019-02-12T01:30:09.517Z,1016.64
2019-02-12T01:31:09.482Z,1016.64
2019-02-12T01:32:09.459Z,1016.64
2019-02-12T01:33:09.435Z,1016.65
2019-02-12T01:34:09.421Z,1016.65
2019-02-12T01:35:09.377Z,1016.68
2019-02-12T01:36:09.352Z,1016.63
2019-02-12T01:37:09.332Z,1016.65
2019-02-12T01:38:09.301Z,1016.70
2019-02-12T01:39:09.324Z,1016.68
2019-02-12T01:40:09.254Z,1016.68
2019-02-12T01:41:09.238Z,1016.73
2019-02-12T01:42:09.234Z,1016.74
2019-02-12T01:43:09.198Z,1016.72
2019-02-12T01:44:09.173Z,1016.80
2019-02-12T01:45:09.156Z,1016.82
2019-02-12T01:46:09.106Z,1016.77
2019-02-12T01:47:09.080Z,1016.74
2019-02-12T01:48:09.038Z,1016.77
2019-02-12T01:49:09.018Z,1016.73
2019-02-12T01:50:08.988Z,1016.74
2019-02-12T01:51:08.957Z,1016.75
2019-02-12T01:52:08.950Z,1016.72
2019-02-12T01:53:08.912Z,1016.73
2019-02-12T01:54:08.884Z,1016.74
2019-02-12T01:55:08.885Z,1016.73
2019-02-12T01:56:08.825Z,1016.78
2019-02-12T01:57:08.795Z,1016.74
2019-02-12T01:58:08.798Z,1016.80
2019-02-12T01:59:08.752Z,1016.80
2019-02-12T02:00:08.715Z,1016.78
2019-02-12T02:01:08.688Z,1016.75
2019-02-12T02:02:08.680Z,1016.77
2019-02-12T02:03:08.641Z,1016.84
2019-02-12T02:04:08.621Z,1016.83
2019-02-12T02:05:08.623Z,1016.88
2019-02-12T02:06:08.583Z,1016.92
2019-02-12T02:07:08.537Z,1016.96
2019-02-12T02:08:08.510Z,1016.95
2019-02-12T02:09:08.489Z,1017.02
2019-02-12T02:10:08.474Z,1017.02
2019-02-12T02:11:08.480Z,1017.01
2019-02-12T02:12:08.430Z,1017.00
2019-02-12T02:13:08.398Z,1017.01
2019-02-12T02:14:08.353Z,1016.99
2019-02-12T02:15:08.365Z,1016.99
2019-02-12T02:16:08.303Z,1016.98
2019-02-12T02:17:08.282Z,1016.98
2019-02-12T02:18:08.273Z,1016.95
2019-02-12T02:19:08.224Z,1016.95
2019-02-12T02:20:08.186Z,1016.97
2019-02-12T02:21:08.170Z,1016.97
2019-02-12T02:22:08.140Z,1016.93
2019-02-12T02:23:08.110Z,1016.91
2019-02-12T02:24:08.080Z,1016.86
2019-02-12T02:25:08.053Z,1016.88
2019-02-12T02:26:08.031Z,1016.91
2019-02-12T02:27:08.008Z,1016.88
2019-02-12T02:28:07.982Z,1016.93
2019-02-12T02:29:07.957Z,1016.92
2019-02-12T02:30:07.963Z,1016.92
2019-02-12T02:31:07.900Z,1016.88
2019-02-12T02:32:07.885Z,1016.89
2019-02-12T02:33:07.846Z,1016.89
2019-02-12T02:34:07.818Z,1016.92
2019-02-12T02:35:07.804Z,1016.92
2019-02-12T02:36:07.761Z,1016.94
2019-02-12T02:37:07.796Z,1016.94
2019-02-12T02:38:07.739Z,1016.98
2019-02-12T02:39:07.688Z,1016.96
2019-02-12T02:40:07.655Z,1017.03
2019-02-12T02:41:07.638Z,1017.00
2019-02-12T02:42:07.605Z,1017.00
2019-02-12T02:43:07.595Z,1017.01
2019-02-12T02:44:07.580Z,1016.98
2019-02-12T02:45:07.528Z,1016.97
2019-02-12T02:46:07.503Z,1016.94
2019-02-12T02:47:07.466Z,1016.95
2019-02-12T02:48:07.458Z,1016.95
2019-02-12T02:49:07.431Z,1016.93
2019-02-12T02:50:07.400Z,1016.93
2019-02-12T02:51:07.374Z,1016.97
2019-02-12T02:52:07.341Z,1016.93
2019-02-12T02:53:07.316Z,1016.98
2019-02-12T02:54:07.289Z,1017.01
2019-02-12T02:55:07.257Z,1016.96
2019-02-12T02:56:07.237Z,1016.99
2019-02-12T02:57:07.197Z,1017.03
2019-02-12T02:58:07.192Z,1017.01
2019-02-12T02:59:07.153Z,1017.01
2019-02-12T03:00:07.157Z,1017.02
2019-02-12T03:01:07.095Z,1017.03
2019-02-12T03:02:07.067Z,1017.01
2019-02-12T03:03:07.050Z,1017.00
2019-02-12T03:04:07.010Z,1017.01
2019-02-12T03:05:06.988Z,1017.06
2019-02-12T03:06:06.959Z,1017.08
2019-02-12T03:07:06.939Z,1017.10
2019-02-12T03:08:06.920Z,1017.07
2019-02-12T03:09:06.906Z,1017.05
2019-02-12T03:10:06.866Z,1017.03
2019-02-12T03:11:06.825Z,1017.05
2019-02-12T03:12:06.804Z,1017.04
2019-02-12T03:13:06.777Z,1017.07
2019-02-12T03:14:06.753Z,1017.11
2019-02-12T03:15:06.713Z,1017.13
2019-02-12T03:16:06.698Z,1017.14
2019-02-12T03:17:06.671Z,1017.13
2019-02-12T03:18:06.643Z,1017.10
2019-02-12T03:19:06.617Z,1017.10
2019-02-12T03:20:06.597Z,1017.09
2019-02-12T03:21:06.561Z,1017.12
2019-02-12T03:22:06.538Z,1017.11
2019-02-12T03:23:06.516Z,1017.13
2019-02-12T03:24:06.484Z,1017.13
2019-02-12T03:25:06.474Z,1017.14
2019-02-12T03:26:06.448Z,1017.18
2019-02-12T03:27:06.427Z,1017.22
2019-02-12T03:28:06.410Z,1017.21
2019-02-12T03:29:06.342Z,1017.24
2019-02-12T03:30:06.320Z,1017.17
2019-02-12T03:31:06.289Z,1017.18
2019-02-12T03:32:06.319Z,1017.19
2019-02-12T03:33:06.248Z,1017.14
2019-02-12T03:34:06.212Z,1017.15
2019-02-12T03:35:06.185Z,1017.16
2019-02-12T03:36:06.176Z,1017.13
2019-02-12T03:37:06.158Z,1017.18
2019-02-12T03:38:06.134Z,1017.19
2019-02-12T03:39:06.075Z,1017.20
2019-02-12T03:40:06.058Z,1017.15
2019-02-12T03:41:06.028Z,1017.17
2019-02-12T03:42:05.997Z,1017.19
2019-02-12T03:43:05.968Z,1017.18
2019-02-12T03:44:05.948Z,1017.17
2019-02-12T03:45:05.929Z,1017.26
2019-02-12T03:46:05.896Z,1017.26
2019-02-12T03:47:05.857Z,1017.33
2019-02-12T03:48:05.868Z,1017.28
2019-02-12T03:49:05.824Z,1017.27
2019-02-12T03:50:05.785Z,1017.33
2019-02-12T03:51:05.750Z,1017.31
2019-02-12T03:52:12.592Z,1017.27
2019-02-12T03:53:05.694Z,1017.30
2019-02-12T03:54:05.687Z,1017.30
2019-02-12T03:55:05.649Z,1017.31
2019-02-12T03:56:05.618Z,1017.33
2019-02-12T03:57:05.602Z,1017.36
2019-02-12T03:58:05.563Z,1017.34
2019-02-12T03:59:05.532Z,1017.31
2019-02-12T04:00:05.523Z,1017.31
2019-02-12T04:01:05.476Z,1017.30
2019-02-12T04:02:05.474Z,1017.30
2019-02-12T04:03:05.475Z,1017.32
2019-02-12T04:04:05.416Z,1017.33
2019-02-12T04:05:05.369Z,1017.29
2019-02-12T04:06:05.347Z,1017.32
2019-02-12T04:07:05.329Z,1017.29
2019-02-12T04:08:05.289Z,1017.27
2019-02-12T04:09:05.262Z,1017.21
2019-02-12T04:10:05.259Z,1017.21
2019-02-12T04:11:05.206Z,1017.17
2019-02-12T04:12:05.206Z,1017.21
2019-02-12T04:13:05.153Z,1017.15
2019-02-12T04:14:05.174Z,1017.20
2019-02-12T04:15:05.142Z,1017.22
2019-02-12T04:16:05.091Z,1017.20
2019-02-12T04:17:05.048Z,1017.21
2019-02-12T04:18:05.060Z,1017.24
2019-02-12T04:19:05.005Z,1017.24
2019-02-12T04:20:04.987Z,1017.33
2019-02-12T04:21:04.961Z,1017.34
2019-02-12T04:22:04.912Z,1017.33
2019-02-12T04:23:04.880Z,1017.30
2019-02-12T04:24:04.853Z,1017.34
2019-02-12T04:25:04.843Z,1017.31
2019-02-12T04:26:04.808Z,1017.32
2019-02-12T04:27:04.788Z,1017.36
2019-02-12T04:28:04.799Z,1017.36
2019-02-12T04:29:04.733Z,1017.36
2019-02-12T04:30:04.711Z,1017.32
2019-02-12T04:31:04.695Z,1017.30
2019-02-12T04:32:04.637Z,1017.37
2019-02-12T04:33:04.650Z,1017.37
2019-02-12T04:34:04.586Z,1017.32
2019-02-12T04:35:04.556Z,1017.35
2019-02-12T04:36:04.537Z,1017.35
2019-02-12T04:37:04.525Z,1017.32
2019-02-12T04:38:04.472Z,1017.34
2019-02-12T04:39:04.449Z,1017.36
2019-02-12T04:40:04.437Z,1017.32
2019-02-12T04:41:04.390Z,1017.32
2019-02-12T04:42:04.375Z,1017.29
2019-02-12T04:43:04.375Z,1017.28
2019-02-12T04:44:04.312Z,1017.29
2019-02-12T04:45:04.282Z,1017.37
2019-02-12T04:46:04.267Z,1017.37
2019-02-12T04:47:04.226Z,1017.34
2019-02-12T04:48:04.203Z,1017.30
2019-02-12T04:49:04.168Z,1017.30
2019-02-12T04:50:04.147Z,1017.31
2019-02-12T04:51:04.145Z,1017.30
2019-02-12T04:52:04.100Z,1017.35
2019-02-12T04:53:04.063Z,1017.37
2019-02-12T04:54:04.034Z,1017.39
2019-02-12T04:55:06.011Z,1017.40
2019-02-12T04:56:04.029Z,1017.37
2019-02-12T04:57:03.978Z,1017.35
2019-02-12T04:58:03.948Z,1017.34
2019-02-12T04:59:03.895Z,1017.35
2019-02-12T05:00:03.875Z,1017.32
2019-02-12T05:01:03.865Z,1017.31
2019-02-12T05:02:03.819Z,1017.28
2019-02-12T05:03:03.820Z,1017.32
2019-02-12T05:04:03.775Z,1017.34
2019-02-12T05:05:03.758Z,1017.31
2019-02-12T05:06:03.773Z,1017.29
2019-02-12T05:07:03.731Z,1017.29
2019-02-12T05:08:03.650Z,1017.31
2019-02-12T05:09:03.654Z,1017.31
2019-02-12T05:10:03.621Z,1017.33
2019-02-12T05:11:03.567Z,1017.35
2019-02-12T05:12:03.573Z,1017.36
2019-02-12T05:13:03.545Z,1017.34
2019-02-12T05:14:03.485Z,1017.34
2019-02-12T05:15:03.485Z,1017.32
2019-02-12T05:16:03.441Z,1017.32
2019-02-12T05:17:03.404Z,1017.36
2019-02-12T05:18:03.377Z,1017.33
2019-02-12T05:19:03.364Z,1017.38
2019-02-12T05:20:03.332Z,1017.37
2019-02-12T05:21:03.303Z,1017.40
2019-02-12T05:22:03.269Z,1017.38
2019-02-12T05:23:03.239Z,1017.35
2019-02-12T05:24:03.223Z,1017.37
2019-02-12T05:25:03.195Z,1017.34
2019-02-12T05:26:03.197Z,1017.37
2019-02-12T05:27:03.128Z,1017.36
2019-02-12T05:28:03.113Z,1017.41
2019-02-12T05:29:03.081Z,1017.40
2019-02-12T05:30:03.057Z,1017.44
2019-02-12T05:31:03.061Z,1017.41
2019-02-12T05:32:03.039Z,1017.38
2019-02-12T05:33:02.971Z,1017.37
2019-02-12T05:34:02.965Z,1017.36
2019-02-12T05:35:02.952Z,1017.34
2019-02-12T05:36:02.910Z,1017.37
2019-02-12T05:37:02.893Z,1017.39
2019-02-12T05:38:02.871Z,1017.38
2019-02-12T05:39:02.803Z,1017.37
2019-02-12T05:40:02.783Z,1017.40
2019-02-12T05:41:02.746Z,1017.41
2019-02-12T05:42:02.749Z,1017.40
2019-02-12T05:43:02.702Z,1017.40
2019-02-12T05:44:02.684Z,1017.38
2019-02-12T05:45:02.667Z,1017.39
2019-02-12T05:46:02.608Z,1017.41
2019-02-12T05:47:02.582Z,1017.38
2019-02-12T05:48:02.575Z,1017.38
2019-02-12T05:49:02.535Z,1017.39
2019-02-12T05:50:02.499Z,1017.41
2019-02-12T05:51:02.480Z,1017.44
2019-02-12T05:52:02.447Z,1017.47
2019-02-12T05:53:02.419Z,1017.47
2019-02-12T05:54:02.387Z,1017.43
2019-02-12T05:55:02.382Z,1017.45
2019-02-12T05:56:02.336Z,1017.45
2019-02-12T05:57:02.306Z,1017.49
2019-02-12T05:58:02.302Z,1017.53
2019-02-12T05:59:02.259Z,1017.51
2019-02-12T06:00:02.233Z,1017.55
2019-02-12T06:01:02.208Z,1017.57
2019-02-12T06:02:02.185Z,1017.53
2019-02-12T06:03:02.172Z,1017.50
2019-02-12T06:04:02.109Z,1017.57
2019-02-12T06:05:02.103Z,1017.48
2019-02-12T06:06:02.122Z,1017.49
2019-02-12T06:07:02.056Z,1017.46
2019-02-12T06:08:02.024Z,1017.45
2019-02-12T06:09:02.221Z,1017.47
2019-02-12T06:10:01.989Z,1017.55
2019-02-12T06:11:01.917Z,1017.56
2019-02-12T06:12:01.914Z,1017.57
2019-02-12T06:13:01.876Z,1017.56
2019-02-12T06:14:01.837Z,1017.56
2019-02-12T06:15:01.815Z,1017.50
2019-02-12T06:16:01.820Z,1017.54
2019-02-12T06:17:01.774Z,1017.54
2019-02-12T06:18:01.751Z,1017.55
2019-02-12T06:19:01.734Z,1017.51
2019-02-12T06:20:01.671Z,1017.54
2019-02-12T06:21:01.649Z,1017.61
2019-02-12T06:22:01.620Z,1017.60
2019-02-12T06:23:03.659Z,1017.58
2019-02-12T06:24:01.564Z,1017.65
2019-02-12T06:25:01.556Z,1017.62
2019-02-12T06:26:01.507Z,1017.62
2019-02-12T06:27:01.480Z,1017.60
2019-02-12T06:28:01.450Z,1017.59
2019-02-12T06:29:01.428Z,1017.62
2019-02-12T06:30:01.413Z,1017.61
2019-02-12T06:31:01.368Z,1017.62
2019-02-12T06:32:01.415Z,1017.65
2019-02-12T06:33:07.311Z,1017.64
2019-02-12T06:34:01.279Z,1017.60
2019-02-12T06:35:01.263Z,1017.62
2019-02-12T06:36:01.231Z,1017.57
2019-02-12T06:37:01.204Z,1017.60
2019-02-12T06:38:01.178Z,1017.59
2019-02-12T06:39:01.148Z,1017.60
2019-02-12T06:40:01.127Z,1017.64
2019-02-12T06:41:01.091Z,1017.59
2019-02-12T06:42:01.193Z,1017.59
2019-02-12T06:43:01.046Z,1017.63
2019-02-12T06:44:01.026Z,1017.61
2019-02-12T06:45:00.996Z,1017.63
2019-02-12T06:46:00.957Z,1017.66
2019-02-12T06:47:00.928Z,1017.66
2019-02-12T06:48:00.900Z,1017.70
2019-02-12T06:49:00.874Z,1017.74
2019-02-12T06:50:00.846Z,1017.68
2019-02-12T06:51:00.822Z,1017.68
2019-02-12T06:52:00.835Z,1017.71
2019-02-12T06:53:00.778Z,1017.69
2019-02-12T06:54:00.752Z,1017.71
2019-02-12T06:55:00.721Z,1017.75
2019-02-12T06:56:00.677Z,1017.77
2019-02-12T06:57:00.662Z,1017.75
2019-02-12T06:58:00.625Z,1017.76
2019-02-12T06:59:00.614Z,1017.79
2019-02-12T07:00:00.584Z,1017.84
2019-02-12T07:01:00.551Z,1017.83
2019-02-12T07:02:00.537Z,1017.81
2019-02-12T07:03:00.536Z,1017.84
2019-02-12T07:04:00.464Z,1017.88
2019-02-12T07:05:00.434Z,1017.85
2019-02-12T07:06:00.432Z,1017.88
2019-02-12T07:07:00.406Z,1017.85
2019-02-12T07:08:00.351Z,1017.84
2019-02-12T07:09:00.319Z,1017.84
2019-02-12T07:10:00.466Z,1017.84
2019-02-12T07:11:00.271Z,1017.89
2019-02-12T07:12:00.255Z,1017.94
2019-02-12T07:13:00.208Z,1017.96
2019-02-12T07:14:00.207Z,1017.97
2019-02-12T07:15:00.300Z,1018.04
2019-02-12T07:16:00.131Z,1018.05
2019-02-12T07:17:00.103Z,1018.08
2019-02-12T07:18:00.094Z,1018.10
2019-02-12T07:19:00.075Z,1018.18
2019-02-12T07:20:00.031Z,1018.15
2019-02-12T07:21:00.000Z,1018.16
2019-02-12T07:21:59.963Z,1018.21
2019-02-12T07:22:59.942Z,1018.17
2019-02-12T07:23:59.936Z,1018.20
2019-02-12T07:24:59.888Z,1018.23
2019-02-12T07:25:59.883Z,1018.23
2019-02-12T07:26:59.838Z,1018.28
2019-02-12T07:27:59.812Z,1018.28
2019-02-12T07:28:59.805Z,1018.33
2019-02-12T07:29:59.750Z,1018.35
2019-02-12T07:30:59.758Z,1018.39
2019-02-12T07:31:59.703Z,1018.48
2019-02-12T07:32:59.667Z,1018.46
2019-02-12T07:33:59.648Z,1018.51
2019-02-12T07:34:59.622Z,1018.51
2019-02-12T07:35:59.608Z,1018.55
2019-02-12T07:36:59.610Z,1018.54
2019-02-12T07:37:59.533Z,1018.51
2019-02-12T07:38:59.504Z,1018.51
2019-02-12T07:39:59.483Z,1018.55
2019-02-12T07:40:59.459Z,1018.60
2019-02-12T07:41:59.433Z,1018.57
2019-02-12T07:42:59.411Z,1018.61
2019-02-12T07:43:59.380Z,1018.62
2019-02-12T07:44:59.354Z,1018.62
2019-02-12T07:45:59.324Z,1018.71
2019-02-12T07:46:59.293Z,1018.71
2019-02-12T07:47:59.279Z,1018.73
2019-02-12T07:48:59.230Z,1018.74
2019-02-12T07:49:59.219Z,1018.73
2019-02-12T07:50:59.217Z,1018.75
2019-02-12T07:51:59.155Z,1018.74
2019-02-12T07:52:59.135Z,1018.76
2019-02-12T07:53:59.107Z,1018.77
2019-02-12T07:54:59.087Z,1018.71
2019-02-12T07:55:59.050Z,1018.75
2019-02-12T07:56:59.027Z,1018.77
2019-02-12T07:57:59.003Z,1018.78
2019-02-12T07:58:58.968Z,1018.83
2019-02-12T07:59:58.952Z,1018.81
2019-02-12T08:00:58.916Z,1018.87
2019-02-12T08:01:58.886Z,1018.87
2019-02-12T08:02:58.880Z,1018.88
2019-02-12T08:03:58.836Z,1018.91
2019-02-12T08:04:58.830Z,1018.94
2019-02-12T08:05:58.781Z,1018.94
2019-02-12T08:06:58.787Z,1018.97
2019-02-12T08:07:58.724Z,1018.96
2019-02-12T08:08:58.709Z,1018.97
2019-02-12T08:09:58.679Z,1018.95
2019-02-12T08:10:58.659Z,1018.96
2019-02-12T08:11:58.632Z,1018.97
2019-02-12T08:12:58.608Z,1019.02
2019-02-12T08:13:58.603Z,1019.01
2019-02-12T08:14:58.550Z,1019.05
2019-02-12T08:15:58.508Z,1019.07
2019-02-12T08:16:58.486Z,1019.10
2019-02-12T08:17:58.485Z,1019.16
2019-02-12T08:18:58.433Z,1019.21
2019-02-12T08:19:58.409Z,1019.22
2019-02-12T08:20:58.390Z,1019.20
2019-02-12T08:21:58.370Z,1019.24
2019-02-12T08:22:58.325Z,1019.18
2019-02-12T08:23:58.299Z,1019.21
2019-02-12T08:24:58.282Z,1019.21
2019-02-12T08:25:58.247Z,1019.23
2019-02-12T08:26:58.217Z,1019.22
2019-02-12T08:27:58.232Z,1019.30
2019-02-12T08:28:58.193Z,1019.22
2019-02-12T08:29:58.136Z,1019.22
2019-02-12T08:30:58.136Z,1019.20
2019-02-12T08:31:58.098Z,1019.25
2019-02-12T08:32:58.075Z,1019.25
2019-02-12T08:33:58.034Z,1019.27
2019-02-12T08:34:58.003Z,1019.30
2019-02-12T08:35:57.976Z,1019.32
2019-02-12T08:36:57.981Z,1019.37
2019-02-12T08:37:57.946Z,1019.40
2019-02-12T08:38:57.907Z,1019.35
2019-02-12T08:39:57.908Z,1019.40
2019-02-12T08:40:57.859Z,1019.38
2019-02-12T08:41:57.834Z,1019.36
2019-02-12T08:42:57.811Z,1019.35
2019-02-12T08:43:57.787Z,1019.34
2019-02-12T08:44:57.757Z,1019.41
2019-02-12T08:45:57.730Z,1019.33
2019-02-12T08:46:57.691Z,1019.36
2019-02-12T08:47:57.664Z,1019.33
2019-02-12T08:48:57.675Z,1019.31
2019-02-12T08:49:57.619Z,1019.32
2019-02-12T08:50:57.582Z,1019.33
2019-02-12T08:51:57.573Z,1019.36
2019-02-12T08:52:57.563Z,1019.36
2019-02-12T08:53:57.536Z,1019.39
2019-02-12T08:54:57.490Z,1019.37
2019-02-12T08:55:57.473Z,1019.36
2019-02-12T08:56:57.430Z,1019.38
2019-02-12T08:57:57.394Z,1019.38
2019-02-12T08:58:57.395Z,1019.40
2019-02-12T08:59:57.589Z,1019.34
2019-02-12T09:00:57.321Z,1019.36
2019-02-12T09:01:57.295Z,1019.34
2019-02-12T09:02:57.269Z,1019.35
2019-02-12T09:03:57.252Z,1019.40
2019-02-12T09:04:57.222Z,1019.39
2019-02-12T09:05:57.254Z,1019.43
2019-02-12T09:06:57.161Z,1019.42
2019-02-12T09:07:57.151Z,1019.43
2019-02-12T09:08:57.123Z,1019.42
2019-02-12T09:09:57.097Z,1019.43
2019-02-12T09:10:57.067Z,1019.44
2019-02-12T09:11:57.035Z,1019.44
2019-02-12T09:12:57.007Z,1019.46
2019-02-12T09:13:56.986Z,1019.46
2019-02-12T09:14:56.963Z,1019.47
2019-02-12T09:15:56.932Z,1019.47
2019-02-12T09:16:56.942Z,1019.49
2019-02-12T09:17:57.748Z,1019.53
2019-02-12T09:18:57.261Z,1019.49
2019-02-12T09:19:57.012Z,1019.51
2019-02-12T09:20:56.813Z,1019.56
2019-02-12T09:21:56.770Z,1019.51
2019-02-12T09:22:56.755Z,1019.49
2019-02-12T09:24:00.386Z,1019.48
2019-02-12T09:24:56.700Z,1019.44
2019-02-12T09:25:56.682Z,1019.44
2019-02-12T09:26:56.665Z,1019.45
2019-02-12T09:27:56.624Z,1019.43
2019-02-12T09:28:56.615Z,1019.41
2019-02-12T09:29:56.594Z,1019.39
2019-02-12T09:30:57.421Z,1019.42
2019-02-12T09:31:56.526Z,1019.40
2019-02-12T09:32:56.520Z,1019.42
2019-02-12T09:33:56.466Z,1019.47
2019-02-12T09:34:56.443Z,1019.43
2019-02-12T09:35:56.446Z,1019.48
2019-02-12T09:36:56.416Z,1019.48
2019-02-12T09:37:56.369Z,1019.49
2019-02-12T09:38:56.375Z,1019.48
2019-02-12T09:39:56.338Z,1019.53
2019-02-12T09:40:56.297Z,1019.52
2019-02-12T09:41:56.268Z,1019.54
2019-02-12T09:42:57.119Z,1019.53
2019-02-12T09:43:56.220Z,1019.54
2019-02-12T09:44:56.192Z,1019.55
2019-02-12T09:45:56.210Z,1019.57
2019-02-12T09:46:56.134Z,1019.59
2019-02-12T09:47:56.127Z,1019.61
2019-02-12T09:48:56.108Z,1019.61
2019-02-12T09:49:56.072Z,1019.62
2019-02-12T09:50:56.048Z,1019.64
2019-02-12T09:51:56.020Z,1019.65
2019-02-12T09:52:56.044Z,1019.70
2019-02-12T09:53:55.964Z,1019.68
2019-02-12T09:54:55.956Z,1019.63
2019-02-12T09:55:55.934Z,1019.64
2019-02-12T09:56:55.889Z,1019.65
2019-02-12T09:57:55.878Z,1019.62
2019-02-12T09:58:55.840Z,1019.60
2019-02-12T09:59:55.812Z,1019.60
2019-02-12T10:00:55.820Z,1019.59
2019-02-12T10:01:55.765Z,1019.58
2019-02-12T10:02:55.779Z,1019.56
2019-02-12T10:03:55.725Z,1019.59
2019-02-12T10:04:55.744Z,1019.61
2019-02-12T10:05:55.668Z,1019.66
2019-02-12T10:06:55.672Z,1019.65
2019-02-12T10:07:55.622Z,1019.64
2019-02-12T10:08:55.586Z,1019.66
2019-02-12T10:09:55.572Z,1019.65
2019-02-12T10:10:55.544Z,1019.69
2019-02-12T10:11:55.525Z,1019.71
2019-02-12T10:12:55.496Z,1019.74
2019-02-12T10:13:55.469Z,1019.75
2019-02-12T10:14:55.439Z,1019.74
2019-02-12T10:15:55.421Z,1019.76
2019-02-12T10:16:55.392Z,1019.79
2019-02-12T10:17:55.421Z,1019.82
2019-02-12T10:18:55.348Z,1019.81
2019-02-12T10:19:55.357Z,1019.83
2019-02-12T10:20:55.296Z,1019.83
2019-02-12T10:21:55.274Z,1019.85
2019-02-12T10:22:55.245Z,1019.85
2019-02-12T10:23:55.234Z,1019.84
2019-02-12T10:24:55.204Z,1019.88
2019-02-12T10:25:55.172Z,1019.90
2019-02-12T10:26:55.197Z,1019.88
2019-02-12T10:27:55.138Z,1019.90
2019-02-12T10:28:55.111Z,1019.91
2019-02-12T10:29:55.085Z,1019.91
2019-02-12T10:30:55.071Z,1019.91
2019-02-12T10:31:55.029Z,1019.94
2019-02-12T10:32:55.048Z,1019.94
2019-02-12T10:33:55.004Z,1019.97
2019-02-12T10:34:54.971Z,1019.96
2019-02-12T10:35:54.933Z,1019.96
2019-02-12T10:36:54.914Z,1019.96
2019-02-12T10:37:54.882Z,1019.94
2019-02-12T10:38:54.855Z,1019.96
2019-02-12T10:39:54.838Z,1019.96
2019-02-12T10:40:54.812Z,1019.93
2019-02-12T10:41:54.794Z,1019.97
2019-02-12T10:42:54.759Z,1019.92
2019-02-12T10:43:54.745Z,1019.94
2019-02-12T10:44:54.741Z,1019.86
2019-02-12T10:45:54.727Z,1019.90
2019-02-12T10:46:54.675Z,1019.93
2019-02-12T10:47:54.643Z,1019.90
2019-02-12T10:48:54.661Z,1019.87
2019-02-12T10:49:54.611Z,1019.91
2019-02-12T10:50:54.606Z,1019.92
2019-02-12T10:51:54.577Z,1019.92
2019-02-12T10:52:54.547Z,1019.91
2019-02-12T10:53:54.511Z,1019.88
2019-02-12T10:54:54.503Z,1019.86
2019-02-12T10:55:54.485Z,1019.87
2019-02-12T10:56:54.442Z,1019.90
2019-02-12T10:57:54.406Z,1019.88
2019-02-12T10:58:54.400Z,1019.86
2019-02-12T10:59:54.388Z,1019.87
2019-02-12T11:00:54.339Z,1019.82
2019-02-12T11:01:54.330Z,1019.84
2019-02-12T11:02:54.298Z,1019.86
2019-02-12T11:03:54.282Z,1019.83
2019-02-12T11:04:54.244Z,1019.80
2019-02-12T11:05:54.249Z,1019.83
2019-02-12T11:06:54.206Z,1019.83
2019-02-12T11:07:54.177Z,1019.83
2019-02-12T11:08:54.160Z,1019.81
2019-02-12T11:09:54.138Z,1019.80
2019-02-12T11:10:54.132Z,1019.80
2019-02-12T11:11:54.087Z,1019.79
2019-02-12T11:12:54.093Z,1019.81
2019-02-12T11:13:54.041Z,1019.83
2019-02-12T11:14:54.015Z,1019.81
2019-02-12T11:15:54.011Z,1019.78
2019-02-12T11:16:53.971Z,1019.79
2019-02-12T11:17:53.941Z,1019.83
2019-02-12T11:18:53.916Z,1019.80
2019-02-12T11:19:53.893Z,1019.73
2019-02-12T11:20:53.911Z,1019.74
2019-02-12T11:21:53.864Z,1019.77
2019-02-12T11:22:53.829Z,1019.75
2019-02-12T11:23:53.804Z,1019.74
2019-02-12T11:24:53.777Z,1019.70
2019-02-12T11:25:53.759Z,1019.78
2019-02-12T11:26:53.740Z,1019.75
2019-02-12T11:27:53.742Z,1019.75
2019-02-12T11:28:53.699Z,1019.78
2019-02-12T11:29:53.659Z,1019.77
2019-02-12T11:30:53.666Z,1019.77
2019-02-12T11:31:53.631Z,1019.78
2019-02-12T11:32:53.600Z,1019.78
2019-02-12T11:33:53.578Z,1019.78
2019-02-12T11:34:53.550Z,1019.77
2019-02-12T11:35:53.545Z,1019.77
2019-02-12T11:36:53.521Z,1019.77
2019-02-12T11:37:53.487Z,1019.76
2019-02-12T11:38:53.459Z,1019.73
2019-02-12T11:39:53.449Z,1019.74
2019-02-12T11:40:53.442Z,1019.72
2019-02-12T11:41:53.400Z,1019.68
2019-02-12T11:42:53.399Z,1019.67
2019-02-12T11:43:53.360Z,1019.68
2019-02-12T11:44:53.328Z,1019.69
2019-02-12T11:45:53.307Z,1019.64
2019-02-12T11:46:53.273Z,1019.63
2019-02-12T11:47:53.257Z,1019.56
2019-02-12T11:48:53.226Z,1019.60
2019-02-12T11:49:53.224Z,1019.59
2019-02-12T11:50:53.183Z,1019.56
2019-02-12T11:51:53.194Z,1019.59
2019-02-12T11:52:53.131Z,1019.58
2019-02-12T11:53:53.125Z,1019.61
2019-02-12T11:54:53.108Z,1019.64
2019-02-12T11:55:53.065Z,1019.65
2019-02-12T11:56:53.041Z,1019.66
2019-02-12T11:57:53.038Z,1019.68
2019-02-12T11:58:53.000Z,1019.64
2019-02-12T11:59:52.983Z,1019.65
2019-02-12T12:00:52.980Z,1019.67
2019-02-12T12:01:52.942Z,1019.58
2019-02-12T12:02:52.923Z,1019.57
2019-02-12T12:03:52.904Z,1019.58
2019-02-12T12:04:52.895Z,1019.60